Time;durP1;ratioP1;P1;durP2;ratioP2;P2;SDS_P1;SDS_P2;PMS_P1;PMS_P2;Temp;Humidity;BMP_temperature;BMP_pressure;BME280_temperature;BME280_humidity;BME280_pressure;Samples;Min_cycle;Max_cycle;Signal;HPM_P1;HPM_P2
2022/12/25 00:00:04;;;;;;;14.30;6.60;;;;;;;;;;4997244;28;20976;-68
2022/12/25 00:02:29;;;;;;;18.92;7.22;;;;;;;;;;5004963;28;20044;-68
2022/12/25 00:04:54;;;;;;;11.80;6.15;;;;;;;;;;5005588;28;20032;-67
2022/12/25 00:07:20;;;;;;;15.95;6.82;;;;;;;;;;5004721;28;20910;-68
2022/12/25 00:09:45;;;;;;;16.33;6.57;;;;;;;;;;5004298;28;20242;-67
2022/12/25 00:12:10;;;;;;;8.65;5.32;;;;;;;;;;5004994;28;20118;-68
2022/12/25 00:14:35;;;;;;;12.93;6.28;;;;;;;;;;5004918;28;20877;-68
2022/12/25 00:17:00;;;;;;;15.05;6.90;;;;;;;;;;5003588;28;20866;-67
2022/12/25 00:19:26;;;;;;;11.60;6.68;;;;;;;;;;5000824;28;20033;-67
2022/12/25 00:21:51;;;;;;;13.45;6.50;;;;;;;;;;4998942;28;20062;-67
2022/12/25 00:24:16;;;;;;;16.40;7.18;;;;;;;;;;4997203;28;20024;-67
2022/12/25 00:26:41;;;;;;;15.73;6.60;;;;;;;;;;5004464;28;20023;-67
2022/12/25 00:29:10;;;;;;;17.63;7.85;;;;;;;;;;4995110;28;20872;-68
2022/12/25 00:31:36;;;;;;;13.75;6.80;;;;;;;;;;5004553;28;20037;-68
2022/12/25 00:34:01;;;;;;;18.08;6.35;;;;;;;;;;5004472;28;20893;-68
2022/12/25 00:36:26;;;;;;;10.85;6.15;;;;;;;;;;4996578;28;20744;-68
2022/12/25 00:38:51;;;;;;;13.52;6.05;;;;;;;;;;5004301;28;20033;-68
2022/12/25 00:44:03;;;;;;;11.00;6.32;;;;;;;;;;5004791;28;20953;-68
2022/12/25 00:46:28;;;;;;;18.73;7.40;;;;;;;;;;5004984;28;20009;-68
2022/12/25 00:48:53;;;;;;;14.25;5.95;;;;;;;;;;4999211;28;20104;-68
2022/12/25 00:51:19;;;;;;;11.10;6.07;;;;;;;;;;5003727;28;20128;-67
2022/12/25 00:53:44;;;;;;;16.08;6.28;;;;;;;;;;4996119;28;20013;-67
2022/12/25 00:56:09;;;;;;;13.80;6.15;;;;;;;;;;4994440;28;20882;-67
2022/12/25 00:58:35;;;;;;;17.60;6.40;;;;;;;;;;5004144;28;20877;-67
2022/12/25 01:01:01;;;;;;;17.90;6.50;;;;;;;;;;5004386;28;20053;-67
2022/12/25 01:03:27;;;;;;;10.20;6.20;;;;;;;;;;5005647;28;20035;-67
2022/12/25 01:05:56;;;;;;;14.90;6.65;;;;;;;;;;5008691;28;20810;-67
2022/12/25 01:08:22;;;;;;;11.05;5.93;;;;;;;;;;5008093;28;20029;-67
2022/12/25 01:11:00;;;;;;;11.43;6.45;;;;;;;;;;5010255;28;20818;-67
2022/12/25 01:13:26;;;;;;;12.10;6.65;;;;;;;;;;5011575;28;20537;-67
2022/12/25 01:15:51;;;;;;;11.55;6.10;;;;;;;;;;5013342;28;20070;-67
2022/12/25 01:18:18;;;;;;;9.38;6.28;;;;;;;;;;5016695;28;20530;-67
2022/12/25 01:20:43;;;;;;;12.23;6.68;;;;;;;;;;5011428;28;20796;-68
2022/12/25 01:23:08;;;;;;;10.80;6.70;;;;;;;;;;5008357;28;20013;-68
2022/12/25 01:25:33;;;;;;;19.73;6.55;;;;;;;;;;5010107;28;20229;-67
2022/12/25 01:27:59;;;;;;;13.50;6.72;;;;;;;;;;5005778;28;20017;-67
2022/12/25 01:30:24;;;;;;;12.25;7.20;;;;;;;;;;4999633;28;20025;-68
2022/12/25 01:32:49;;;;;;;16.55;7.38;;;;;;;;;;4997254;28;20029;-67
2022/12/25 01:35:14;;;;;;;13.27;6.78;;;;;;;;;;5001244;28;20774;-67
2022/12/25 01:37:40;;;;;;;8.68;5.68;;;;;;;;;;5003610;28;20021;-67
2022/12/25 01:40:06;;;;;;;14.20;6.70;;;;;;;;;;5005955;28;20045;-67
2022/12/25 01:42:31;;;;;;;15.25;6.28;;;;;;;;;;5007649;28;20850;-67
2022/12/25 01:44:56;;;;;;;9.25;5.88;;;;;;;;;;5007240;28;20025;-68
2022/12/25 01:47:21;;;;;;;9.63;5.87;;;;;;;;;;5017345;28;20183;-68
2022/12/25 01:49:49;;;;;;;11.52;6.38;;;;;;;;;;5030769;28;20260;-67
2022/12/25 01:52:18;;;;;;;15.32;6.75;;;;;;;;;;5023064;28;20047;-67
2022/12/25 01:54:57;;;;;;;8.85;5.40;;;;;;;;;;5016601;28;20809;-67
2022/12/25 01:57:27;;;;;;;11.15;5.55;;;;;;;;;;5015776;28;20031;-68
2022/12/25 01:59:53;;;;;;;17.52;6.85;;;;;;;;;;5005567;28;20371;-67
2022/12/25 02:02:19;;;;;;;14.50;5.35;;;;;;;;;;4994333;28;20084;-68
2022/12/25 02:04:47;;;;;;;10.40;4.82;;;;;;;;;;5002065;28;20881;-68
2022/12/25 02:07:14;;;;;;;13.00;4.43;;;;;;;;;;5006428;28;20016;-68
2022/12/25 02:09:39;;;;;;;10.52;5.93;;;;;;;;;;5007496;28;20052;-68
2022/12/25 02:12:06;;;;;;;12.77;5.85;;;;;;;;;;5013524;28;20025;-68
2022/12/25 02:14:32;;;;;;;17.60;5.07;;;;;;;;;;5008547;28;20123;-68
2022/12/25 02:17:06;;;;;;;10.48;5.65;;;;;;;;;;4997173;28;20013;-68
2022/12/25 02:20:10;;;;;;;13.07;5.20;;;;;;;;;;4997630;28;20033;-68
2022/12/25 02:22:54;;;;;;;7.47;4.55;;;;;;;;;;4988238;28;20049;-68
2022/12/25 02:25:28;;;;;;;11.75;5.22;;;;;;;;;;4999946;28;20025;-68
2022/12/25 02:27:53;;;;;;;8.23;4.75;;;;;;;;;;5000378;28;20033;-68
2022/12/25 02:30:18;;;;;;;9.70;4.77;;;;;;;;;;5007105;28;20013;-68
2022/12/25 02:34:01;;;;;;;9.10;5.28;;;;;;;;;;5006999;28;20264;-68
2022/12/25 02:35:40;;;;;;;8.30;4.95;;;;;;;;;;5002528;28;20043;-68
2022/12/25 02:38:15;;;;;;;11.18;5.85;;;;;;;;;;5006231;28;20023;-68
2022/12/25 02:40:47;;;;;;;11.80;6.35;;;;;;;;;;5008234;28;20029;-68
2022/12/25 03:08:48;;;;;;;;;;;;;;;;;;5006440;28;20087;-68
2022/12/25 03:11:31;;;;;;;12.73;6.00;;;;;;;;;;5007988;28;19905;-68
2022/12/25 03:16:49;;;;;;;13.88;4.57;;;;;;;;;;4997693;28;20047;-68
2022/12/25 03:27:30;;;;;;;9.48;4.15;;;;;;;;;;5007783;28;20095;-68
2022/12/25 03:33:25;;;;;;;6.70;3.65;;;;;;;;;;4998420;28;20024;-68
2022/12/25 03:36:17;;;;;;;7.07;3.30;;;;;;;;;;4991093;28;20055;-68
2022/12/25 04:36:35;;;;;;;9.43;3.55;;;;;;;;;;5005823;28;20130;-67
2022/12/25 04:39:00;;;;;;;6.68;3.03;;;;;;;;;;5005386;28;20020;-67
2022/12/25 04:41:25;;;;;;;9.73;3.28;;;;;;;;;;5008283;28;20033;-67
2022/12/25 04:43:50;;;;;;;8.73;3.20;;;;;;;;;;5008259;28;20871;-66
2022/12/25 04:46:16;;;;;;;12.38;3.10;;;;;;;;;;5007587;28;20832;-67
2022/12/25 04:48:41;;;;;;;8.43;3.28;;;;;;;;;;5003038;28;20809;-67
2022/12/25 04:51:13;;;;;;;7.85;2.92;;;;;;;;;;5014458;28;20021;-67
2022/12/25 04:53:39;;;;;;;6.60;2.72;;;;;;;;;;5019043;28;20047;-67
2022/12/25 04:56:04;;;;;;;6.78;3.03;;;;;;;;;;5015511;28;20064;-67
2022/12/25 04:58:30;;;;;;;10.63;2.97;;;;;;;;;;5015755;28;20021;-67
2022/12/25 05:00:57;;;;;;;7.13;2.67;;;;;;;;;;5009153;28;20017;-67
2022/12/25 05:03:24;;;;;;;6.15;2.47;;;;;;;;;;5008877;28;20845;-67
2022/12/25 05:05:49;;;;;;;12.20;3.00;;;;;;;;;;4996438;28;20025;-66
2022/12/25 05:08:14;;;;;;;7.90;2.80;;;;;;;;;;5001904;28;20053;-66
2022/12/25 05:10:39;;;;;;;4.20;2.15;;;;;;;;;;4996887;28;20053;-66
2022/12/25 05:13:04;;;;;;;6.38;2.42;;;;;;;;;;5001897;28;20523;-66
2022/12/25 05:15:30;;;;;;;7.10;2.75;;;;;;;;;;5004278;28;20120;-66
2022/12/25 05:17:55;;;;;;;5.68;2.22;;;;;;;;;;5007315;28;20017;-66
2022/12/25 05:20:20;;;;;;;8.27;2.25;;;;;;;;;;5004535;28;20900;-66
2022/12/25 05:22:45;;;;;;;7.57;2.78;;;;;;;;;;5003826;28;20127;-67
2022/12/25 05:25:11;;;;;;;6.70;2.88;;;;;;;;;;5009101;28;20879;-67
2022/12/25 05:27:36;;;;;;;5.80;2.45;;;;;;;;;;5001618;28;20133;-67
2022/12/25 05:30:02;;;;;;;8.65;2.25;;;;;;;;;;5007583;28;20970;-67
2022/12/25 05:32:27;;;;;;;12.20;2.42;;;;;;;;;;4999671;28;20025;-67
2022/12/25 05:34:52;;;;;;;6.15;2.30;;;;;;;;;;5007748;28;20016;-67
2022/12/25 05:37:17;;;;;;;6.82;2.45;;;;;;;;;;5008724;28;20758;-67
2022/12/25 05:39:43;;;;;;;5.82;2.30;;;;;;;;;;5007797;28;20802;-67
2022/12/25 05:42:08;;;;;;;5.10;2.10;;;;;;;;;;4996075;28;20013;-67
2022/12/25 05:44:33;;;;;;;7.03;1.95;;;;;;;;;;5007180;28;20086;-67
2022/12/25 05:46:58;;;;;;;7.60;2.25;;;;;;;;;;5006902;28;20017;-67
2022/12/25 05:49:24;;;;;;;6.22;2.20;;;;;;;;;;5007459;28;20110;-66
2022/12/25 05:51:49;;;;;;;14.55;2.65;;;;;;;;;;5000544;28;20021;-66
2022/12/25 05:54:15;;;;;;;4.97;2.47;;;;;;;;;;5006915;28;20013;-66
2022/12/25 05:56:40;;;;;;;4.85;2.33;;;;;;;;;;5003696;28;20025;-65
2022/12/25 05:59:06;;;;;;;4.43;1.83;;;;;;;;;;4994690;28;20826;-66
2022/12/25 06:01:31;;;;;;;5.90;2.25;;;;;;;;;;5007577;28;20036;-67
2022/12/25 06:03:56;;;;;;;5.68;2.28;;;;;;;;;;5008057;28;20078;-67
2022/12/25 06:06:21;;;;;;;6.00;3.08;;;;;;;;;;5009007;28;20013;-67
2022/12/25 06:08:47;;;;;;;8.15;1.95;;;;;;;;;;5005618;28;20053;-67
2022/12/25 06:11:13;;;;;;;4.40;2.10;;;;;;;;;;5008737;28;21005;-67
2022/12/25 06:13:38;;;;;;;10.57;2.80;;;;;;;;;;5007074;28;20017;-67
2022/12/25 06:16:04;;;;;;;5.47;2.67;;;;;;;;;;5004835;28;20966;-67
2022/12/25 06:18:30;;;;;;;9.05;2.30;;;;;;;;;;5005221;28;20021;-67
2022/12/25 06:20:55;;;;;;;5.07;2.13;;;;;;;;;;5002731;28;20378;-67
2022/12/25 06:23:20;;;;;;;5.03;2.35;;;;;;;;;;5007431;28;20128;-67
2022/12/25 06:25:45;;;;;;;5.13;2.25;;;;;;;;;;5007208;28;20133;-67
2022/12/25 06:28:11;;;;;;;6.75;2.50;;;;;;;;;;5007347;28;21084;-68
2022/12/25 06:30:36;;;;;;;6.72;2.28;;;;;;;;;;5005402;28;20805;-67
2022/12/25 06:33:01;;;;;;;6.20;1.98;;;;;;;;;;4990778;28;20015;-69
2022/12/25 06:35:26;;;;;;;6.18;2.08;;;;;;;;;;4992600;28;20835;-67
2022/12/25 06:37:52;;;;;;;9.90;2.42;;;;;;;;;;5005771;28;20040;-68
2022/12/25 06:40:17;;;;;;;8.00;2.53;;;;;;;;;;5005586;28;20127;-67
2022/12/25 06:42:42;;;;;;;5.75;2.17;;;;;;;;;;5006671;28;20017;-67
2022/12/25 06:45:08;;;;;;;4.88;1.90;;;;;;;;;;5006493;28;20866;-68
2022/12/25 06:47:34;;;;;;;6.50;2.33;;;;;;;;;;5005529;28;20062;-67
2022/12/25 06:49:59;;;;;;;7.95;2.47;;;;;;;;;;5004870;28;20020;-67
2022/12/25 06:52:24;;;;;;;7.68;2.33;;;;;;;;;;5006792;28;20902;-67
2022/12/25 06:54:50;;;;;;;4.05;1.83;;;;;;;;;;5006664;28;20036;-67
2022/12/25 06:57:16;;;;;;;6.32;2.60;;;;;;;;;;5004037;28;20024;-67
2022/12/25 06:59:41;;;;;;;6.55;2.00;;;;;;;;;;5006137;28;20032;-67
2022/12/25 07:02:13;;;;;;;10.32;1.75;;;;;;;;;;4999826;28;20948;-67
2022/12/25 07:04:40;;;;;;;4.97;2.00;;;;;;;;;;4999682;28;20298;-67
2022/12/25 07:07:06;;;;;;;6.30;2.40;;;;;;;;;;4998151;28;20530;-67
2022/12/25 07:09:31;;;;;;;3.42;1.65;;;;;;;;;;5005433;28;20021;-67
2022/12/25 07:12:26;;;;;;;6.20;2.97;;;;;;;;;;5005819;28;20053;-67
2022/12/25 07:14:54;;;;;;;6.63;2.42;;;;;;;;;;4986178;28;20030;-67
2022/12/25 07:17:20;;;;;;;5.25;2.10;;;;;;;;;;5000368;28;20024;-67
2022/12/25 07:19:46;;;;;;;5.82;2.25;;;;;;;;;;4994121;28;20916;-67
2022/12/25 07:22:11;;;;;;;4.80;2.05;;;;;;;;;;5005175;28;20059;-67
2022/12/25 07:24:37;;;;;;;6.47;2.78;;;;;;;;;;5005724;28;20130;-67
2022/12/25 07:27:02;;;;;;;4.43;1.70;;;;;;;;;;4995188;28;20027;-66
2022/12/25 07:29:27;;;;;;;7.32;2.17;;;;;;;;;;5004981;28;20016;-67
2022/12/25 07:31:52;;;;;;;10.85;3.00;;;;;;;;;;5005456;28;20055;-67
2022/12/25 07:34:18;;;;;;;4.77;2.60;;;;;;;;;;5012743;28;21489;-67
2022/12/25 07:36:43;;;;;;;5.82;2.65;;;;;;;;;;5007884;28;21144;-67
2022/12/25 07:39:09;;;;;;;10.30;2.72;;;;;;;;;;5007953;28;20857;-67
2022/12/25 07:41:34;;;;;;;5.13;2.40;;;;;;;;;;5008595;28;20056;-67
2022/12/25 07:44:00;;;;;;;4.75;2.80;;;;;;;;;;5008247;28;20789;-67
2022/12/25 07:46:25;;;;;;;8.52;2.83;;;;;;;;;;5011329;28;20163;-67
2022/12/25 07:48:50;;;;;;;6.75;2.40;;;;;;;;;;5001503;28;20025;-68
2022/12/25 07:51:16;;;;;;;5.30;2.55;;;;;;;;;;4991675;28;20060;-66
2022/12/25 07:53:41;;;;;;;5.88;2.20;;;;;;;;;;5004322;28;20087;-67
2022/12/25 07:56:09;;;;;;;4.50;2.28;;;;;;;;;;5005138;28;20086;-67
2022/12/25 07:58:35;;;;;;;4.15;2.25;;;;;;;;;;4988281;28;20091;-67
2022/12/25 08:01:02;;;;;;;9.60;2.70;;;;;;;;;;5002707;28;20120;-67
2022/12/25 08:03:27;;;;;;;4.97;2.10;;;;;;;;;;5004973;28;20040;-67
2022/12/25 08:05:58;;;;;;;5.63;2.55;;;;;;;;;;5005108;28;20021;-67
2022/12/25 08:08:23;;;;;;;3.90;2.00;;;;;;;;;;5005581;28;20029;-67
2022/12/25 08:10:48;;;;;;;6.38;2.38;;;;;;;;;;5000674;28;20121;-67
2022/12/25 08:13:14;;;;;;;8.23;2.50;;;;;;;;;;5003600;28;20083;-67
2022/12/25 08:15:40;;;;;;;9.43;2.53;;;;;;;;;;5004822;28;20115;-67
2022/12/25 08:18:05;;;;;;;6.25;3.13;;;;;;;;;;5003603;28;20032;-67
2022/12/25 08:20:33;;;;;;;8.52;3.22;;;;;;;;;;4999484;28;20127;-67
2022/12/25 08:22:59;;;;;;;9.48;4.20;;;;;;;;;;5003582;28;20844;-67
2022/12/25 08:25:24;;;;;;;9.50;4.43;;;;;;;;;;5005542;28;20017;-67
2022/12/25 08:27:49;;;;;;;13.88;3.90;;;;;;;;;;5005738;28;20009;-67
2022/12/25 08:30:14;;;;;;;6.50;3.58;;;;;;;;;;5004343;28;20106;-67
2022/12/25 08:32:40;;;;;;;6.90;4.13;;;;;;;;;;5001764;28;20018;-67
2022/12/25 08:35:05;;;;;;;8.55;3.70;;;;;;;;;;5002438;28;20026;-67
2022/12/25 08:37:31;;;;;;;15.60;8.43;;;;;;;;;;4998740;28;20052;-69
2022/12/25 08:39:56;;;;;;;17.23;10.25;;;;;;;;;;4992473;28;20799;-68
2022/12/25 08:42:21;;;;;;;10.35;5.07;;;;;;;;;;5003774;28;20025;-69
2022/12/25 08:44:47;;;;;;;7.13;4.70;;;;;;;;;;5000266;28;20083;-68
2022/12/25 08:47:12;;;;;;;13.02;7.57;;;;;;;;;;4989193;28;20934;-68
2022/12/25 08:49:37;;;;;;;14.73;9.00;;;;;;;;;;5001865;28;20118;-68
2022/12/25 08:52:02;;;;;;;20.48;12.15;;;;;;;;;;5003781;28;20033;-67
2022/12/25 08:54:29;;;;;;;16.73;10.32;;;;;;;;;;5003853;28;20087;-67
2022/12/25 08:56:55;;;;;;;16.20;10.13;;;;;;;;;;5003723;28;20052;-67
2022/12/25 08:59:20;;;;;;;13.57;7.18;;;;;;;;;;4996435;28;20036;-67
2022/12/25 09:01:45;;;;;;;13.30;7.35;;;;;;;;;;5001294;28;20021;-67
2022/12/25 09:04:10;;;;;;;15.43;8.18;;;;;;;;;;5002986;28;20035;-67
2022/12/25 09:06:36;;;;;;;11.15;7.45;;;;;;;;;;5004907;28;20120;-67
2022/12/25 09:09:02;;;;;;;11.18;6.35;;;;;;;;;;5003371;28;20079;-67
2022/12/25 09:11:27;;;;;;;12.13;7.28;;;;;;;;;;5004695;28;20794;-67
2022/12/25 09:13:52;;;;;;;10.02;7.18;;;;;;;;;;5004720;28;20079;-66
2022/12/25 09:16:19;;;;;;;14.85;10.18;;;;;;;;;;5005108;28;20055;-67
2022/12/25 09:18:44;;;;;;;15.30;9.27;;;;;;;;;;5003762;28;20021;-66
2022/12/25 09:21:12;;;;;;;10.90;8.10;;;;;;;;;;5005376;28;20028;-68
2022/12/25 09:23:38;;;;;;;16.63;9.38;;;;;;;;;;5002454;28;20021;-68
2022/12/25 09:26:04;;;;;;;21.63;11.20;;;;;;;;;;5010302;28;20024;-64
2022/12/25 09:28:29;;;;;;;17.85;10.95;;;;;;;;;;5022815;28;20863;-67
2022/12/25 09:30:55;;;;;;;15.90;10.80;;;;;;;;;;5009665;28;20009;-69
2022/12/25 09:33:20;;;;;;;21.48;11.05;;;;;;;;;;5005083;28;20017;-67
2022/12/25 09:35:59;;;;;;;17.77;9.68;;;;;;;;;;5009771;28;20021;-65
2022/12/25 09:38:24;;;;;;;14.70;8.23;;;;;;;;;;5011081;28;20144;-69
2022/12/25 09:41:06;;;;;;;11.00;6.32;;;;;;;;;;5013189;28;20040;-73
2022/12/25 09:43:36;;;;;;;10.23;6.03;;;;;;;;;;5010374;28;20028;-69
2022/12/25 09:46:03;;;;;;;9.10;6.00;;;;;;;;;;4997964;28;20091;-66
2022/12/25 09:48:30;;;;;;;8.38;5.80;;;;;;;;;;5013903;28;20134;-68
2022/12/25 09:51:03;;;;;;;11.63;7.10;;;;;;;;;;5006284;28;20020;-67
2022/12/25 09:53:39;;;;;;;10.98;6.13;;;;;;;;;;4997888;28;20072;-70
2022/12/25 09:56:18;;;;;;;16.70;7.10;;;;;;;;;;5001853;28;20120;-66
2022/12/25 09:58:43;;;;;;;13.07;6.95;;;;;;;;;;5007435;28;20912;-66
2022/12/25 10:01:08;;;;;;;11.73;9.40;;;;;;;;;;4997664;28;20098;-65
2022/12/25 10:03:46;;;;;;;14.20;10.98;;;;;;;;;;5002878;28;20859;-69
2022/12/25 10:06:15;;;;;;;11.38;7.88;;;;;;;;;;5004057;28;20025;-68
2022/12/25 10:09:03;;;;;;;18.50;13.10;;;;;;;;;;5008420;28;20871;-67
2022/12/25 10:11:44;;;;;;;13.82;11.15;;;;;;;;;;4998314;28;20036;-68
2022/12/25 10:14:24;;;;;;;18.23;7.88;;;;;;;;;;4999480;28;20021;-67
2022/12/25 10:17:08;;;;;;;16.92;9.25;;;;;;;;;;5009574;28;20441;-68
2022/12/25 10:19:36;;;;;;;13.73;10.32;;;;;;;;;;5006710;28;20028;-68
2022/12/25 10:22:07;;;;;;;18.17;13.93;;;;;;;;;;5008156;28;20948;-67
2022/12/25 10:24:34;;;;;;;17.67;11.38;;;;;;;;;;5008121;28;20013;-67
2022/12/25 10:27:06;;;;;;;16.23;9.38;;;;;;;;;;5007977;28;20025;-66
2022/12/25 10:29:32;;;;;;;16.30;7.95;;;;;;;;;;4992461;28;20020;-66
2022/12/25 10:31:57;;;;;;;11.05;8.40;;;;;;;;;;4999403;28;20132;-66
2022/12/25 10:34:23;;;;;;;11.02;9.25;;;;;;;;;;5009116;28;20451;-66
2022/12/25 10:36:49;;;;;;;12.65;8.38;;;;;;;;;;5007592;28;20887;-66
2022/12/25 10:39:15;;;;;;;10.38;8.35;;;;;;;;;;5007496;28;20025;-67
2022/12/25 10:41:52;;;;;;;10.27;8.65;;;;;;;;;;5007024;28;20158;-67
2022/12/25 10:44:23;;;;;;;12.15;9.23;;;;;;;;;;5007676;28;20025;-66
2022/12/25 10:46:55;;;;;;;51.03;32.00;;;;;;;;;;5007828;28;20012;-67
2022/12/25 10:49:21;;;;;;;19.60;14.38;;;;;;;;;;5005678;28;20863;-66
2022/12/25 10:51:47;;;;;;;44.42;27.52;;;;;;;;;;5008468;28;20029;-67
2022/12/25 10:54:26;;;;;;;16.60;14.25;;;;;;;;;;5021274;28;20040;-67
2022/12/25 10:56:52;;;;;;;16.83;13.77;;;;;;;;;;5007910;28;20032;-66
2022/12/25 10:59:19;;;;;;;14.35;12.40;;;;;;;;;;5038851;28;20076;-66
2022/12/25 11:01:44;;;;;;;18.63;13.00;;;;;;;;;;5005740;28;20013;-65
2022/12/25 11:04:20;;;;;;;16.15;11.88;;;;;;;;;;5006001;28;20033;-67
2022/12/25 11:06:54;;;;;;;15.77;13.00;;;;;;;;;;5007241;28;20017;-65
2022/12/25 11:09:19;;;;;;;14.52;11.02;;;;;;;;;;5006225;28;20074;-65
2022/12/25 11:11:46;;;;;;;15.13;12.40;;;;;;;;;;5002272;28;20032;-66
2022/12/25 11:14:16;;;;;;;12.20;10.90;;;;;;;;;;5000681;28;20087;-66
2022/12/25 11:16:42;;;;;;;15.95;12.60;;;;;;;;;;5004914;28;20027;-67
2022/12/25 11:19:26;;;;;;;16.85;12.80;;;;;;;;;;4998422;28;20017;-66
2022/12/25 11:21:53;;;;;;;13.23;11.82;;;;;;;;;;5012538;28;20868;-67
2022/12/25 11:24:19;;;;;;;17.90;15.07;;;;;;;;;;5007061;28;20020;-67
2022/12/25 11:26:46;;;;;;;17.30;15.48;;;;;;;;;;5005282;28;20060;-69
2022/12/25 11:29:34;;;;;;;22.73;16.73;;;;;;;;;;5002245;28;20077;-67
2022/12/25 11:32:01;;;;;;;19.65;17.20;;;;;;;;;;4999404;28;20033;-65
2022/12/25 11:34:35;;;;;;;21.80;17.42;;;;;;;;;;4996116;28;20086;-66
2022/12/25 11:37:01;;;;;;;23.98;19.02;;;;;;;;;;5004325;28;20242;-65
2022/12/25 11:39:31;;;;;;;19.05;15.73;;;;;;;;;;4998716;28;20037;-65
2022/12/25 11:42:15;;;;;;;19.10;15.70;;;;;;;;;;5015056;28;20025;-64
2022/12/25 11:44:52;;;;;;;21.15;16.08;;;;;;;;;;5011723;28;20017;-64
2022/12/25 11:47:25;;;;;;;20.20;14.18;;;;;;;;;;5002748;28;20009;-64
2022/12/25 11:50:13;;;;;;;16.83;13.38;;;;;;;;;;5006466;28;20013;-65
2022/12/25 11:52:39;;;;;;;15.82;14.20;;;;;;;;;;5005550;28;20033;-64
2022/12/25 11:55:23;;;;;;;17.55;15.73;;;;;;;;;;5005588;28;20017;-64
2022/12/25 11:57:52;;;;;;;16.93;14.27;;;;;;;;;;4992957;28;20029;-66
2022/12/25 12:00:17;;;;;;;19.52;15.88;;;;;;;;;;5002887;28;20040;-65
2022/12/25 12:02:50;;;;;;;21.48;17.58;;;;;;;;;;5005554;28;20812;-65
2022/12/25 12:05:18;;;;;;;20.63;18.27;;;;;;;;;;5005883;28;20040;-65
2022/12/25 12:08:03;;;;;;;21.02;17.27;;;;;;;;;;5004676;28;20844;-65
2022/12/25 12:10:28;;;;;;;;;;;;;;;;;;4997061;28;20025;-69
2022/12/25 12:13:12;;;;;;;22.73;20.33;;;;;;;;;;5005312;28;19905;-66
2022/12/25 12:15:42;;;;;;;24.63;20.55;;;;;;;;;;5013205;28;20017;-66
2022/12/25 12:18:28;;;;;;;20.95;18.08;;;;;;;;;;5003573;28;20783;-72
2022/12/25 12:21:04;;;;;;;27.27;24.27;;;;;;;;;;5017115;28;20036;-67
2022/12/25 12:23:32;;;;;;;37.72;32.58;;;;;;;;;;5010148;28;20019;-66
2022/12/25 12:25:57;;;;;;;29.48;24.55;;;;;;;;;;5003537;28;20044;-67
2022/12/25 12:28:24;;;;;;;25.65;21.90;;;;;;;;;;5012495;28;20032;-67
2022/12/25 12:31:03;;;;;;;24.25;19.75;;;;;;;;;;5020102;28;20025;-69
2022/12/25 12:33:37;;;;;;;20.48;18.27;;;;;;;;;;4998322;28;20022;-66
2022/12/25 12:36:02;;;;;;;20.08;17.83;;;;;;;;;;4996537;28;20839;-67
2022/12/25 12:38:29;;;;;;;21.73;17.48;;;;;;;;;;5001907;28;20091;-66
2022/12/25 12:40:57;;;;;;;22.15;16.95;;;;;;;;;;5003721;28;20033;-66
2022/12/25 12:43:41;;;;;;;23.17;19.67;;;;;;;;;;5004088;28;20132;-66
2022/12/25 12:46:12;;;;;;;21.50;19.08;;;;;;;;;;5003185;28;20026;-66
2022/12/25 12:48:39;;;;;;;21.13;18.88;;;;;;;;;;5004037;28;20065;-66
2022/12/25 12:51:06;;;;;;;24.85;20.33;;;;;;;;;;5002831;28;20013;-65
2022/12/25 12:53:31;;;;;;;34.17;23.85;;;;;;;;;;5002540;28;20136;-64
2022/12/25 12:56:08;;;;;;;58.20;42.78;;;;;;;;;;5003820;28;20800;-64
2022/12/25 12:58:34;;;;;;;60.05;43.90;;;;;;;;;;5004367;28;20881;-65
2022/12/25 13:01:18;;;;;;;67.95;59.10;;;;;;;;;;5002747;28;20986;-64
2022/12/25 13:03:54;;;;;;;39.13;31.75;;;;;;;;;;5006612;28;21052;-64
2022/12/25 13:06:26;;;;;;;29.92;26.08;;;;;;;;;;5007314;28;20024;-66
2022/12/25 13:08:59;;;;;;;28.58;21.00;;;;;;;;;;5000425;28;20017;-64
2022/12/25 13:11:28;;;;;;;23.48;20.58;;;;;;;;;;5009604;28;20028;-65
2022/12/25 13:13:55;;;;;;;26.20;21.13;;;;;;;;;;5006837;28;20013;-65
2022/12/25 13:16:25;;;;;;;27.17;18.83;;;;;;;;;;5007699;28;20024;-66
2022/12/25 13:18:52;;;;;;;29.75;20.02;;;;;;;;;;5008922;28;20064;-66
2022/12/25 13:21:20;;;;;;;25.90;19.70;;;;;;;;;;5009025;28;20128;-67
2022/12/25 13:23:46;;;;;;;24.35;20.42;;;;;;;;;;5008104;28;20774;-67
2022/12/25 13:26:12;;;;;;;20.77;18.15;;;;;;;;;;5005449;28;20051;-65
2022/12/25 13:28:38;;;;;;;24.85;18.45;;;;;;;;;;5007362;28;20016;-66
2022/12/25 13:31:20;;;;;;;22.88;18.70;;;;;;;;;;5008319;28;20027;-68
2022/12/25 13:33:57;;;;;;;21.33;17.88;;;;;;;;;;5007629;28;20017;-66
2022/12/25 13:36:22;;;;;;;17.25;15.13;;;;;;;;;;5008471;28;20013;-65
2022/12/25 13:38:49;;;;;;;18.65;16.30;;;;;;;;;;5007676;28;20025;-65
2022/12/25 13:44:26;;;;;;;21.05;17.58;;;;;;;;;;4999144;28;20114;-66
2022/12/25 13:46:51;;;;;;;20.50;15.60;;;;;;;;;;4998832;28;20021;-67
2022/12/25 13:49:20;;;;;;;41.30;27.70;;;;;;;;;;5007687;28;20099;-66
2022/12/25 13:51:46;;;;;;;21.35;17.88;;;;;;;;;;5001967;28;20098;-67
2022/12/25 13:54:12;;;;;;;31.33;24.23;;;;;;;;;;5007528;28;20557;-67
2022/12/25 13:56:43;;;;;;;30.48;25.40;;;;;;;;;;5007775;28;20017;-67
2022/12/25 13:59:13;;;;;;;35.10;26.85;;;;;;;;;;5006865;28;20017;-67
2022/12/25 14:01:41;;;;;;;25.25;22.00;;;;;;;;;;4997561;28;20878;-67
2022/12/25 14:04:12;;;;;;;38.40;26.15;;;;;;;;;;4994121;28;20017;-67
2022/12/25 14:06:37;;;;;;;32.53;25.05;;;;;;;;;;5005845;28;20045;-66
2022/12/25 14:09:03;;;;;;;29.08;22.63;;;;;;;;;;4999937;28;20013;-67
2022/12/25 14:11:28;;;;;;;24.38;20.88;;;;;;;;;;4999226;28;20944;-65
2022/12/25 14:14:00;;;;;;;20.05;17.50;;;;;;;;;;5007140;28;20025;-67
2022/12/25 14:16:25;;;;;;;21.40;17.00;;;;;;;;;;5006954;28;20953;-67
2022/12/25 14:18:58;;;;;;;21.77;17.17;;;;;;;;;;5007492;28;20021;-67
2022/12/25 14:21:31;;;;;;;20.45;17.70;;;;;;;;;;5006316;28;20017;-65
2022/12/25 14:23:57;;;;;;;19.05;17.05;;;;;;;;;;5007779;28;20020;-67
2022/12/25 14:26:24;;;;;;;23.83;18.58;;;;;;;;;;5007720;28;20048;-67
2022/12/25 14:28:51;;;;;;;20.33;15.85;;;;;;;;;;5005725;28;20234;-67
2022/12/25 14:31:17;;;;;;;23.00;18.23;;;;;;;;;;5007087;28;20032;-67
2022/12/25 14:33:42;;;;;;;26.63;17.05;;;;;;;;;;5014028;28;20030;-67
2022/12/25 14:36:10;;;;;;;20.17;18.00;;;;;;;;;;5010998;28;20271;-66
2022/12/25 14:38:35;;;;;;;26.23;17.58;;;;;;;;;;5000114;28;20021;-66
2022/12/25 14:41:05;;;;;;;19.20;16.77;;;;;;;;;;5002304;28;20036;-66
2022/12/25 14:43:31;;;;;;;21.15;16.60;;;;;;;;;;5006360;28;20009;-67
2022/12/25 14:45:57;;;;;;;19.70;15.75;;;;;;;;;;5007373;28;21010;-67
2022/12/25 14:48:24;;;;;;;18.77;16.02;;;;;;;;;;5005553;28;20132;-66
2022/12/25 14:50:59;;;;;;;20.00;17.90;;;;;;;;;;5006153;28;20194;-69
2022/12/25 14:53:30;;;;;;;33.25;19.63;;;;;;;;;;4995277;28;20021;-66
2022/12/25 14:55:55;;;;;;;24.17;19.83;;;;;;;;;;5006344;28;20021;-66
2022/12/25 14:58:22;;;;;;;23.45;17.33;;;;;;;;;;5006848;28;20033;-69
2022/12/25 15:00:57;;;;;;;25.77;18.08;;;;;;;;;;5007050;28;20033;-68
2022/12/25 15:03:31;;;;;;;19.30;15.80;;;;;;;;;;5001992;28;20959;-67
2022/12/25 15:06:04;;;;;;;21.23;17.53;;;;;;;;;;5005493;28;20035;-68
2022/12/25 15:08:30;;;;;;;19.48;16.40;;;;;;;;;;5006396;28;21164;-69
2022/12/25 15:10:56;;;;;;;24.70;18.08;;;;;;;;;;5006049;28;20116;-67
2022/12/25 15:13:21;;;;;;;22.67;17.30;;;;;;;;;;5004884;28;21008;-66
2022/12/25 15:15:50;;;;;;;23.50;16.90;;;;;;;;;;5006786;28;20061;-67
2022/12/25 15:18:16;;;;;;;19.70;16.08;;;;;;;;;;5006603;28;20017;-64
2022/12/25 15:20:41;;;;;;;25.13;17.25;;;;;;;;;;5004819;28;20712;-68
2022/12/25 15:23:08;;;;;;;20.88;16.65;;;;;;;;;;5003694;28;20040;-68
2022/12/25 15:25:33;;;;;;;24.55;19.50;;;;;;;;;;5006245;28;20933;-71
2022/12/25 15:27:59;;;;;;;19.67;17.67;;;;;;;;;;5001412;28;20005;-66
2022/12/25 15:30:24;;;;;;;20.30;16.08;;;;;;;;;;4999205;28;20810;-67
2022/12/25 15:32:50;;;;;;;22.40;17.48;;;;;;;;;;5005984;28;20048;-65
2022/12/25 15:35:17;;;;;;;19.17;17.10;;;;;;;;;;5005663;28;20807;-65
2022/12/25 15:37:43;;;;;;;20.17;17.25;;;;;;;;;;4995447;28;20091;-66
2022/12/25 15:40:10;;;;;;;17.88;15.40;;;;;;;;;;5005922;28;20017;-67
2022/12/25 15:42:35;;;;;;;21.83;16.13;;;;;;;;;;5005224;28;20780;-62
2022/12/25 15:45:00;;;;;;;21.80;18.48;;;;;;;;;;5005773;28;20017;-66
2022/12/25 15:47:26;;;;;;;26.30;14.73;;;;;;;;;;5004660;28;20144;-67
2022/12/25 15:49:51;;;;;;;18.45;15.48;;;;;;;;;;5004178;28;20047;-64
2022/12/25 15:52:16;;;;;;;26.50;15.90;;;;;;;;;;5004058;28;20017;-70
2022/12/25 15:54:42;;;;;;;22.30;18.05;;;;;;;;;;5005215;28;20299;-68
2022/12/25 15:57:16;;;;;;;19.90;15.13;;;;;;;;;;5005514;28;20020;-69
2022/12/25 15:59:41;;;;;;;;;;;;;;;;;;5008492;28;20103;-69
2022/12/25 16:02:14;;;;;;;19.20;14.23;;;;;;;;;;5008594;28;19931;-68
2022/12/25 16:04:41;;;;;;;25.67;14.95;;;;;;;;;;5009276;28;20907;-68
2022/12/25 16:07:12;;;;;;;19.10;14.10;;;;;;;;;;5009751;28;20029;-68
2022/12/25 16:09:37;;;;;;;24.63;16.60;;;;;;;;;;5009291;28;20017;-67
2022/12/25 16:12:02;;;;;;;24.48;19.40;;;;;;;;;;5006080;28;20013;-68
2022/12/25 16:14:28;;;;;;;25.83;17.20;;;;;;;;;;5000563;28;20900;-68
2022/12/25 16:16:53;;;;;;;17.92;15.18;;;;;;;;;;5005998;28;20123;-68